Wetterdaten: Donnerstag, 21.06.2012
Datum Zeit Temperatur Luftfeuchte Regen Wind Richtung Richtung Taupunkt Windchill Windben
21.06.2012 00:00 15,1 C 94 % 0,0 l/m 0,5 km/h (0 Bft) N 360 14,1 C 15,1 C 0,0 km/h (0 Bft)
21.06.2012 00:05 15,1 C 94 % 0,0 l/m 0,2 km/h (0 Bft) NW 315 14,1 C 15,0 C 0,0 km/h (0 Bft)
21.06.2012 00:10 15,0 C 94 % 0,0 l/m 0,0 km/h (0 Bft) N-NO 22 14,0 C 15,0 C 0,0 km/h (0 Bft)
21.06.2012 00:15 15,0 C 94 % 0,0 l/m 0,0 km/h (0 Bft) O-SO 112 14,0 C 15,0 C 0,0 km/h (0 Bft)
21.06.2012 00:20 15,0 C 94 % 0,0 l/m 0,0 km/h (0 Bft) N 360 14,0 C 14,9 C 0,0 km/h (0 Bft)
21.06.2012 00:25 15,0 C 94 % 0,0 l/m 0,0 km/h (0 Bft) NO 45 14,0 C 14,9 C 0,0 km/h (0 Bft)
21.06.2012 00:30 15,0 C 94 % 0,0 l/m 0,2 km/h (0 Bft) NW 315 14,0 C 14,9 C 0,0 km/h (0 Bft)
21.06.2012 00:35 15,0 C 94 % 0,0 l/m 0,0 km/h (0 Bft) N-NO 22 14,0 C 14,9 C 0,0 km/h (0 Bft)
21.06.2012 00:40 15,1 C 94 % 0,0 l/m 0,0 km/h (0 Bft) NO 45 14,1 C 15,0 C 2,4 km/h (1 Bft)
21.06.2012 00:46 15,1 C 94 % 0,0 l/m 0,8 km/h (0 Bft) NO 45 14,1 C 15,0 C 0,0 km/h (0 Bft)
21.06.2012 00:50 15,1 C 94 % 0,0 l/m 0,8 km/h (0 Bft) NO 45 14,1 C 15,0 C 4,0 km/h (1 Bft)
21.06.2012 00:57 15,0 C 94 % 0,0 l/m 0,2 km/h (0 Bft) NO 45 14,0 C 15,0 C 0,0 km/h (0 Bft)
21.06.2012 01:00 15,0 C 94 % 0,0 l/m 0,2 km/h (0 Bft) NO 45 14,0 C 15,0 C 0,0 km/h (0 Bft)
21.06.2012 01:05 15,0 C 94 % 0,0 l/m 0,0 km/h (0 Bft) N 360 14,0 C 14,9 C 1,6 km/h (1 Bft)
21.06.2012 01:11 15,1 C 94 % 0,0 l/m 0,2 km/h (0 Bft) N-NO 22 14,1 C 15,0 C 0,0 km/h (0 Bft)
21.06.2012 01:15 15,1 C 94 % 0,0 l/m 0,2 km/h (0 Bft) N-NO 22 14,1 C 15,0 C 0,0 km/h (0 Bft)
21.06.2012 01:22 15,1 C 94 % 0,0 l/m 0,0 km/h (0 Bft) O-SO 112 14,1 C 15,0 C 0,0 km/h (0 Bft)
21.06.2012 01:25 15,1 C 94 % 0,0 l/m 0,0 km/h (0 Bft) O-SO 112 14,1 C 15,0 C 0,0 km/h (0 Bft)
21.06.2012 01:30 15,1 C 94 % 0,0 l/m 0,6 km/h (0 Bft) N 360 14,1 C 15,1 C 6,1 km/h (2 Bft)
21.06.2012 01:36 15,0 C 94 % 0,7 l/m 1,1 km/h (1 Bft) NO 45 14,0 C 15,0 C 0,0 km/h (0 Bft)
21.06.2012 01:40 15,0 C 94 % 0,0 l/m 1,1 km/h (1 Bft) NO 45 14,0 C 15,0 C 0,0 km/h (0 Bft)
21.06.2012 01:45 15,0 C 94 % 0,0 l/m 0,3 km/h (0 Bft) W-SW 247 14,0 C 15,0 C 0,0 km/h (0 Bft)
21.06.2012 01:50 15,0 C 94 % 0,0 l/m 0,5 km/h (0 Bft) N-NW 337 14,0 C 15,0 C 3,4 km/h (1 Bft)
21.06.2012 01:55 15,0 C 94 % 0,0 l/m 1,4 km/h (1 Bft) W 270 14,0 C 14,9 C 3,1 km/h (1 Bft)
21.06.2012 02:00 15,0 C 94 % 0,7 l/m 1,6 km/h (1 Bft) N-NW 337 14,0 C 14,9 C 0,0 km/h (0 Bft)
21.06.2012 02:05 15,0 C 94 % 0,0 l/m 0,8 km/h (0 Bft) N-NO 22 14,0 C 14,9 C 0,0 km/h (0 Bft)
21.06.2012 02:12 14,9 C 94 % 0,0 l/m 1,1 km/h (1 Bft) N 360 13,9 C 14,8 C 4,8 km/h (1 Bft)
21.06.2012 02:13 14,9 C 94 % 0,0 l/m 1,1 km/h (1 Bft) N 360 13,9 C 14,8 C 4,8 km/h (1 Bft)
21.06.2012 02:15 14,9 C 94 % 0,0 l/m 1,1 km/h (1 Bft) N 360 13,9 C 14,8 C 4,8 km/h (1 Bft)
21.06.2012 02:20 14,8 C 94 % 0,0 l/m 1,8 km/h (1 Bft) N-NO 22 13,8 C 14,8 C 3,1 km/h (1 Bft)
21.06.2012 02:25 14,8 C 94 % 0,0 l/m 1,1 km/h (1 Bft) NW 315 13,8 C 14,7 C 1,6 km/h (1 Bft)
21.06.2012 02:30 14,6 C 94 % 0,0 l/m 0,3 km/h (0 Bft) S-SO 157 13,6 C 14,6 C 0,0 km/h (0 Bft)
21.06.2012 02:35 14,5 C 94 % 0,0 l/m 0,3 km/h (0 Bft) SO 135 13,5 C 14,5 C 2,1 km/h (1 Bft)
21.06.2012 02:40 14,3 C 94 % 0,0 l/m 1,0 km/h (0 Bft) N 360 13,3 C 14,4 C 0,0 km/h (0 Bft)
21.06.2012 02:45 14,3 C 94 % 0,0 l/m 0,8 km/h (0 Bft) NW 315 13,3 C 14,2 C 0,0 km/h (0 Bft)
21.06.2012 02:50 14,1 C 94 % 0,0 l/m 0,0 km/h (0 Bft) S 180 13,1 C 14,1 C 0,0 km/h (0 Bft)
21.06.2012 02:55 14,1 C 94 % 0,0 l/m 0,0 km/h (0 Bft) N 360 13,1 C 14,1 C 0,0 km/h (0 Bft)
21.06.2012 03:00 14,2 C 94 % 0,0 l/m 0,0 km/h (0 Bft) S 180 13,2 C 14,1 C 1,6 km/h (1 Bft)
21.06.2012 03:05 14,2 C 94 % 0,0 l/m 0,0 km/h (0 Bft) O-SO 112 13,2 C 14,1 C 0,0 km/h (0 Bft)
21.06.2012 03:10 14,2 C 94 % 0,0 l/m 0,0 km/h (0 Bft) NO 45 13,2 C 14,1 C 0,0 km/h (0 Bft)
21.06.2012 03:15 14,1 C 94 % 0,0 l/m 0,0 km/h (0 Bft) N-NO 22 13,1 C 14,0 C 0,0 km/h (0 Bft)
21.06.2012 03:20 14,0 C 94 % 0,0 l/m 0,0 km/h (0 Bft) SO 135 13,0 C 13,9 C 0,0 km/h (0 Bft)
21.06.2012 03:25 13,9 C 94 % 0,0 l/m 0,0 km/h (0 Bft) S-SW 202 12,9 C 13,9 C 0,0 km/h (0 Bft)
21.06.2012 03:30 14,0 C 94 % 0,0 l/m 0,2 km/h (0 Bft) O-SO 112 13,0 C 13,9 C 0,0 km/h (0 Bft)
21.06.2012 03:35 13,9 C 94 % 0,0 l/m 0,2 km/h (0 Bft) NO 45 12,9 C 13,9 C 0,0 km/h (0 Bft)
21.06.2012 03:40 13,9 C 95 % 0,0 l/m 0,0 km/h (0 Bft) N-NW 337 13,1 C 13,7 C 0,0 km/h (0 Bft)
21.06.2012 03:45 13,9 C 94 % 0,0 l/m 0,2 km/h (0 Bft) NO 45 12,9 C 13,6 C 0,0 km/h (0 Bft)
21.06.2012 03:50 13,6 C 94 % 0,0 l/m 0,3 km/h (0 Bft) S 180 12,7 C 13,6 C 0,0 km/h (0 Bft)
21.06.2012 03:55 13,5 C 94 % 0,0 l/m 0,2 km/h (0 Bft) O-SO 112 12,6 C 13,6 C 0,0 km/h (0 Bft)
21.06.2012 04:00 13,4 C 94 % 0,0 l/m 0,2 km/h (0 Bft) S 180 12,5 C 13,6 C 0,0 km/h (0 Bft)
21.06.2012 04:05 13,5 C 94 % 0,0 l/m 0,2 km/h (0 Bft) SO 135 12,6 C 13,5 C 0,0 km/h (0 Bft)
21.06.2012 04:11 13,4 C 94 % 0,0 l/m 0,0 km/h (0 Bft) S-SW 202 12,5 C 13,3 C 0,0 km/h (0 Bft)
21.06.2012 04:15 13,4 C 94 % 0,0 l/m 0,0 km/h (0 Bft) S-SW 202 12,5 C 13,3 C 0,0 km/h (0 Bft)
21.06.2012 04:20 13,3 C 94 % 0,0 l/m 0,0 km/h (0 Bft) S-SO 157 12,4 C 13,2 C 0,0 km/h (0 Bft)
21.06.2012 04:25 13,2 C 94 % 0,0 l/m 0,0 km/h (0 Bft) S 180 12,3 C 13,2 C 0,0 km/h (0 Bft)
21.06.2012 04:30 13,1 C 94 % 0,0 l/m 0,2 km/h (0 Bft) O-SO 112 12,2 C 13,2 C 1,6 km/h (1 Bft)
21.06.2012 04:35 13,2 C 94 % 0,0 l/m 0,2 km/h (0 Bft) N-NO 22 12,3 C 13,2 C 0,0 km/h (0 Bft)
21.06.2012 04:40 13,1 C 94 % 0,0 l/m 0,0 km/h (0 Bft) NO 45 12,2 C 13,1 C 1,6 km/h (1 Bft)
21.06.2012 04:45 13,1 C 94 % 0,0 l/m 0,0 km/h (0 Bft) N 360 12,2 C 13,1 C 0,0 km/h (0 Bft)
21.06.2012 04:50 13,1 C 94 % 0,0 l/m 0,0 km/h (0 Bft) NO 45 12,2 C 12,9 C 0,0 km/h (0 Bft)
21.06.2012 04:55 13,0 C 94 % 0,0 l/m 0,0 km/h (0 Bft) N-NW 337 12,1 C 12,9 C 0,0 km/h (0 Bft)
21.06.2012 05:00 13,1 C 94 % 0,0 l/m 0,0 km/h (0 Bft) N-NW 337 12,2 C 12,8 C 0,0 km/h (0 Bft)
21.06.2012 05:05 13,2 C 94 % 0,0 l/m 0,0 km/h (0 Bft) O-NO 67 12,3 C 12,9 C 0,0 km/h (0 Bft)
21.06.2012 05:10 13,1 C 94 % 0,0 l/m 0,0 km/h (0 Bft) S-SO 157 12,2 C 12,7 C 0,0 km/h (0 Bft)
21.06.2012 05:15 13,0 C 94 % 0,0 l/m 0,0 km/h (0 Bft) NW 315 12,1 C 12,7 C 0,0 km/h (0 Bft)
21.06.2012 05:20 12,8 C 95 % 0,0 l/m 0,0 km/h (0 Bft) N-NW 337 12,0 C 12,5 C 0,0 km/h (0 Bft)
21.06.2012 05:25 12,7 C 95 % 0,0 l/m 0,0 km/h (0 Bft) N-NW 337 11,9 C 12,5 C 0,0 km/h (0 Bft)
21.06.2012 05:30 12,7 C 95 % 0,0 l/m 0,0 km/h (0 Bft) NW 315 11,9 C 12,5 C 0,0 km/h (0 Bft)
21.06.2012 05:35 12,6 C 95 % 0,0 l/m 0,0 km/h (0 Bft) N-NW 337 11,8 C 12,5 C 0,0 km/h (0 Bft)
21.06.2012 05:40 12,6 C 95 % 0,0 l/m 0,0 km/h (0 Bft) O 90 11,8 C 12,5 C 0,0 km/h (0 Bft)
21.06.2012 05:46 12,7 C 95 % 0,0 l/m 0,2 km/h (0 Bft) N-NW 337 11,9 C 12,7 C 0,0 km/h (0 Bft)
21.06.2012 05:50 12,7 C 95 % 0,0 l/m 0,2 km/h (0 Bft) N-NW 337 11,9 C 12,7 C 0,0 km/h (0 Bft)
21.06.2012 05:57 12,9 C 95 % 0,0 l/m 0,0 km/h (0 Bft) N-NO 22 12,1 C 12,9 C 0,0 km/h (0 Bft)
21.06.2012 06:00 12,9 C 95 % 0,0 l/m 0,0 km/h (0 Bft) N-NO 22 12,1 C 12,9 C 0,0 km/h (0 Bft)
21.06.2012 06:05 13,0 C 94 % 0,0 l/m 0,0 km/h (0 Bft) N-NO 22 12,1 C 12,9 C 0,0 km/h (0 Bft)
21.06.2012 06:11 14,0 C 94 % 0,0 l/m 0,0 km/h (0 Bft) NO 45 13,0 C 13,8 C 0,0 km/h (0 Bft)
21.06.2012 06:15 14,0 C 94 % 0,0 l/m 0,0 km/h (0 Bft) NO 45 13,0 C 13,8 C 0,0 km/h (0 Bft)
21.06.2012 06:20 14,2 C 94 % 0,0 l/m 0,0 km/h (0 Bft) NO 45 13,2 C 14,4 C 0,0 km/h (0 Bft)
21.06.2012 06:25 14,4 C 94 % 0,0 l/m 0,2 km/h (0 Bft) SO 135 13,4 C 14,7 C 2,3 km/h (1 Bft)
21.06.2012 06:30 14,3 C 94 % 0,0 l/m 0,5 km/h (0 Bft) N-NO 22 13,3 C 14,6 C 0,0 km/h (0 Bft)
21.06.2012 06:36 15,9 C 94 % 0,0 l/m 0,0 km/h (0 Bft) O-SO 112 14,9 C 16,6 C 0,0 km/h (0 Bft)
21.06.2012 06:40 15,9 C 94 % 0,0 l/m 0,0 km/h (0 Bft) O-SO 112 14,9 C 16,6 C 0,0 km/h (0 Bft)
21.06.2012 06:45 16,0 C 93 % 0,0 l/m 0,2 km/h (0 Bft) W-SW 247 14,9 C 17,2 C 0,0 km/h (0 Bft)
21.06.2012 06:50 16,5 C 92 % 0,0 l/m 0,0 km/h (0 Bft) N 360 15,2 C 18,3 C 0,0 km/h (0 Bft)
21.06.2012 06:55 16,9 C 91 % 0,0 l/m 0,0 km/h (0 Bft) N-NO 22 15,4 C 19,0 C 0,0 km/h (0 Bft)
21.06.2012 07:00 17,6 C 90 % 0,0 l/m 0,0 km/h (0 Bft) S 180 15,9 C 20,1 C 0,0 km/h (0 Bft)
21.06.2012 07:05 18,1 C 90 % 0,0 l/m 0,5 km/h (0 Bft) SO 135 16,4 C 20,3 C 3,1 km/h (1 Bft)
21.06.2012 07:10 18,5 C 88 % 0,0 l/m 0,6 km/h (0 Bft) O-SO 112 16,5 C 20,9 C 0,0 km/h (0 Bft)
21.06.2012 07:15 18,9 C 87 % 0,0 l/m 0,2 km/h (0 Bft) N-NO 22 16,7 C 21,5 C 0,0 km/h (0 Bft)
21.06.2012 07:20 18,9 C 85 % 0,0 l/m 0,0 km/h (0 Bft) N 360 16,3 C 22,1 C 0,0 km/h (0 Bft)
21.06.2012 07:25 19,0 C 85 % 0,0 l/m 0,3 km/h (0 Bft) S 180 16,4 C 22,3 C 0,0 km/h (0 Bft)
21.06.2012 07:30 19,5 C 84 % 0,0 l/m 0,3 km/h (0 Bft) NO 45 16,7 C 23,0 C 0,0 km/h (0 Bft)
21.06.2012 07:35 20,1 C 84 % 0,0 l/m 0,0 km/h (0 Bft) SO 135 17,3 C 23,6 C 0,0 km/h (0 Bft)
21.06.2012 07:40 20,5 C 83 % 0,0 l/m 0,2 km/h (0 Bft) N 360 17,5 C 23,9 C 0,0 km/h (0 Bft)
21.06.2012 07:45 20,6 C 83 % 0,0 l/m 0,2 km/h (0 Bft) N 360 17,6 C 24,3 C 0,0 km/h (0 Bft)
21.06.2012 07:50 20,7 C 81 % 0,0 l/m 0,0 km/h (0 Bft) N-NW 337 17,3 C 24,9 C 0,0 km/h (0 Bft)
21.06.2012 07:55 21,2 C 81 % 0,0 l/m 0,0 km/h (0 Bft) SW 225 17,8 C 25,4 C 0,0 km/h (0 Bft)
21.06.2012 08:00 21,5 C 81 % 0,0 l/m 0,2 km/h (0 Bft) S 180 18,1 C 25,8 C 0,0 km/h (0 Bft)
21.06.2012 08:05 21,5 C 80 % 0,0 l/m 0,2 km/h (0 Bft) W 270 17,9 C 25,8 C 0,0 km/h (0 Bft)
21.06.2012 08:10 21,8 C 79 % 0,0 l/m 0,0 km/h (0 Bft) O 90 18,0 C 26,1 C 0,0 km/h (0 Bft)
21.06.2012 08:15 22,2 C 79 % 0,0 l/m 0,2 km/h (0 Bft) SO 135 18,4 C 26,4 C 0,0 km/h (0 Bft)
21.06.2012 08:20 22,3 C 77 % 0,0 l/m 0,2 km/h (0 Bft) N-NW 337 18,1 C 26,6 C 0,0 km/h (0 Bft)
21.06.2012 08:25 22,3 C 77 % 0,0 l/m 0,0 km/h (0 Bft) N-NW 337 18,1 C 26,8 C 0,0 km/h (0 Bft)
21.06.2012 08:30 22,8 C 77 % 0,0 l/m 0,2 km/h (0 Bft) NO 45 18,5 C 27,3 C 0,0 km/h (0 Bft)
21.06.2012 08:35 22,7 C 75 % 0,0 l/m 0,0 km/h (0 Bft) N-NW 337 18,0 C 27,6 C 0,0 km/h (0 Bft)
21.06.2012 08:40 23,2 C 75 % 0,0 l/m 0,2 km/h (0 Bft) N-NO 22 18,5 C 27,6 C 0,0 km/h (0 Bft)
21.06.2012 08:45 23,2 C 75 % 0,0 l/m 0,3 km/h (0 Bft) N 360 18,5 C 27,8 C 1,6 km/h (1 Bft)
21.06.2012 08:50 23,6 C 74 % 0,0 l/m 0,8 km/h (0 Bft) O-SO 112 18,9 C 27,8 C 2,3 km/h (1 Bft)
21.06.2012 08:55 23,6 C 74 % 0,0 l/m 1,0 km/h (0 Bft) O-NO 67 19,3 C 27,8 C 0,0 km/h (0 Bft)
21.06.2012 09:00 23,5 C 73 % 0,0 l/m 0,8 km/h (0 Bft) W 270 18,5 C 28,2 C 2,1 km/h (1 Bft)
21.06.2012 09:05 23,6 C 75 % 0,0 l/m 0,6 km/h (0 Bft) SO 135 19,7 C 28,3 C 2,6 km/h (1 Bft)
21.06.2012 09:10 23,8 C 69 % 0,0 l/m 0,8 km/h (0 Bft) O-SO 112 18,1 C 28,6 C 0,0 km/h (0 Bft)
21.06.2012 09:15 23,9 C 64 % 0,0 l/m 0,6 km/h (0 Bft) NO 45 16,9 C 28,6 C 1,9 km/h (1 Bft)
21.06.2012 09:20 23,7 C 61 % 0,0 l/m 0,6 km/h (0 Bft) O-SO 112 15,7 C 28,6 C 0,0 km/h (0 Bft)
21.06.2012 09:25 23,8 C 66 % 0,0 l/m 1,0 km/h (0 Bft) N-NO 22 17,1 C 28,5 C 2,1 km/h (1 Bft)
21.06.2012 09:28 24,0 C 62 % 0,0 l/m 1,4 km/h (1 Bft) N-NW 337 16,3 C 28,8 C 2,7 km/h (1 Bft)
21.06.2012 09:33 24,1 C 62 % 0,0 l/m 1,8 km/h (1 Bft) W-SW 247 16,4 C 27,7 C 1,8 km/h (1 Bft)
21.06.2012 09:38 24,4 C 63 % 0,0 l/m 1,4 km/h (1 Bft) O 90 16,9 C 28,3 C 0,0 km/h (0 Bft)
21.06.2012 09:43 22,6 C 71 % 0,0 l/m 1,4 km/h (1 Bft) W-NW 292 17,1 C 28,4 C 0,0 km/h (0 Bft)
21.06.2012 09:48 21,7 C 74 % 0,0 l/m 1,0 km/h (0 Bft) N-NO 22 16,9 C 27,2 C 0,0 km/h (0 Bft)
21.06.2012 09:53 22,7 C 74 % 0,0 l/m 0,2 km/h (0 Bft) N-NW 337 17,8 C 26,4 C 0,0 km/h (0 Bft)
21.06.2012 09:58 23,5 C 74 % 0,0 l/m 0,2 km/h (0 Bft) O 90 18,6 C 27,1 C 0,0 km/h (0 Bft)
21.06.2012 10:03 22,1 C 73 % 0,0 l/m 1,0 km/h (0 Bft) SO 135 17,0 C 26,3 C 0,0 km/h (0 Bft)
21.06.2012 10:08 22,6 C 75 % 0,0 l/m 1,3 km/h (1 Bft) W-SW 247 17,9 C 25,9 C 0,0 km/h (0 Bft)
21.06.2012 10:13 25,2 C 69 % 0,0 l/m 1,9 km/h (1 Bft) S-SW 202 19,3 C 26,4 C 0,0 km/h (0 Bft)
21.06.2012 10:18 25,6 C 67 % 0,0 l/m 2,3 km/h (1 Bft) SO 135 19,0 C 28,0 C 5,6 km/h (1 Bft)
21.06.2012 10:23 23,6 C 67 % 0,0 l/m 2,3 km/h (1 Bft) S-SW 202 17,1 C 28,2 C 4,2 km/h (1 Bft)
21.06.2012 10:28 22,6 C 71 % 0,0 l/m 2,4 km/h (1 Bft) N-NW 337 17,1 C 26,9 C 0,0 km/h (0 Bft)
21.06.2012 10:33 24,7 C 60 % 0,0 l/m 1,6 km/h (1 Bft) NO 45 16,4 C 27,0 C 5,6 km/h (1 Bft)
21.06.2012 10:38 24,3 C 64 % 0,0 l/m 1,8 km/h (1 Bft) S-SW 202 17,0 C 27,4 C 3,7 km/h (1 Bft)
21.06.2012 10:43 22,0 C 69 % 0,0 l/m 2,7 km/h (1 Bft) N 360 16,0 C 25,6 C 1,8 km/h (1 Bft)
21.06.2012 10:48 22,3 C 70 % 0,0 l/m 2,6 km/h (1 Bft) N-NW 337 16,6 C 25,0 C 0,0 km/h (0 Bft)
21.06.2012 10:53 23,6 C 65 % 0,0 l/m 2,3 km/h (1 Bft) W-NW 292 16,6 C 25,5 C 6,6 km/h (2 Bft)
21.06.2012 10:58 24,0 C 65 % 0,0 l/m 3,1 km/h (1 Bft) W-NW 292 17,0 C 26,4 C 5,3 km/h (1 Bft)
21.06.2012 11:03 23,9 C 63 % 0,0 l/m 4,8 km/h (1 Bft) S 180 16,4 C 26,7 C 5,3 km/h (1 Bft)
21.06.2012 11:08 24,1 C 63 % 0,0 l/m 4,5 km/h (1 Bft) W-SW 247 16,6 C 26,1 C 5,1 km/h (1 Bft)
21.06.2012 11:13 25,8 C 57 % 0,0 l/m 3,7 km/h (1 Bft) NW 315 16,6 C 27,1 C 2,6 km/h (1 Bft)
21.06.2012 11:18 25,0 C 54 % 0,0 l/m 3,9 km/h (1 Bft) S-SO 157 15,0 C 27,7 C 4,5 km/h (1 Bft)
21.06.2012 11:23 24,4 C 61 % 0,0 l/m 3,7 km/h (1 Bft) S-SW 202 16,4 C 27,0 C 2,6 km/h (1 Bft)
21.06.2012 11:28 24,6 C 59 % 0,0 l/m 3,5 km/h (1 Bft) W-NW 292 16,0 C 26,8 C 4,2 km/h (1 Bft)
21.06.2012 11:33 23,5 C 61 % 0,0 l/m 3,4 km/h (1 Bft) W-SW 247 15,5 C 26,0 C 3,2 km/h (1 Bft)
21.06.2012 11:38 24,5 C 60 % 0,0 l/m 3,2 km/h (1 Bft) W-SW 247 16,2 C 26,0 C 3,4 km/h (1 Bft)
21.06.2012 11:43 24,8 C 58 % 0,0 l/m 2,9 km/h (1 Bft) W 270 16,0 C 26,5 C 3,4 km/h (1 Bft)
21.06.2012 11:48 24,8 C 58 % 0,0 l/m 2,9 km/h (1 Bft) NO 45 16,0 C 26,8 C 1,9 km/h (1 Bft)
21.06.2012 11:53 23,8 C 59 % 0,0 l/m 3,7 km/h (1 Bft) N 360 15,3 C 26,4 C 6,1 km/h (2 Bft)
21.06.2012 11:58 23,8 C 60 % 0,0 l/m 3,2 km/h (1 Bft) N 360 15,6 C 26,1 C 2,7 km/h (1 Bft)
21.06.2012 12:03 24,2 C 59 % 0,0 l/m 2,9 km/h (1 Bft) W 270 15,7 C 26,4 C 2,7 km/h (1 Bft)
21.06.2012 12:08 24,4 C 59 % 0,0 l/m 3,7 km/h (1 Bft) W-NW 292 15,9 C 26,0 C 4,7 km/h (1 Bft)
21.06.2012 12:13 25,5 C 56 % 0,0 l/m 3,7 km/h (1 Bft) N 360 16,1 C 26,1 C 3,4 km/h (1 Bft)
21.06.2012 12:18 25,4 C 56 % 0,0 l/m 2,7 km/h (1 Bft) S 180 16,0 C 27,1 C 1,6 km/h (1 Bft)
21.06.2012 12:23 25,9 C 58 % 0,0 l/m 2,1 km/h (1 Bft) S-SO 157 17,0 C 27,7 C 2,6 km/h (1 Bft)
21.06.2012 12:28 25,1 C 57 % 0,0 l/m 2,4 km/h (1 Bft) NW 315 16,0 C 27,7 C 4,7 km/h (1 Bft)
21.06.2012 12:33 26,5 C 54 % 0,0 l/m 2,3 km/h (1 Bft) N 360 16,4 C 28,2 C 1,9 km/h (1 Bft)
21.06.2012 12:38 26,5 C 50 % 0,0 l/m 1,8 km/h (1 Bft) W-SW 247 15,2 C 29,0 C 1,6 km/h (1 Bft)
21.06.2012 12:43 25,8 C 56 % 0,0 l/m 2,7 km/h (1 Bft) SW 225 16,3 C 28,2 C 5,3 km/h (1 Bft)
21.06.2012 12:48 26,0 C 54 % 0,0 l/m 3,4 km/h (1 Bft) W 270 16,0 C 28,0 C 6,1 km/h (2 Bft)
21.06.2012 12:53 26,5 C 54 % 0,0 l/m 2,6 km/h (1 Bft) S-SO 157 16,4 C 28,3 C 0,0 km/h (0 Bft)
21.06.2012 12:58 26,8 C 51 % 0,0 l/m 1,9 km/h (1 Bft) SO 135 15,8 C 28,9 C 2,6 km/h (1 Bft)
21.06.2012 13:03 25,6 C 56 % 0,0 l/m 1,6 km/h (1 Bft) NW 315 16,2 C 28,0 C 2,3 km/h (1 Bft)
21.06.2012 13:08 26,1 C 52 % 0,0 l/m 2,1 km/h (1 Bft) N-NW 337 15,5 C 28,2 C 4,2 km/h (1 Bft)
21.06.2012 13:13 26,4 C 51 % 0,0 l/m 3,2 km/h (1 Bft) N-NW 337 15,4 C 28,5 C 2,3 km/h (1 Bft)
21.06.2012 13:18 26,5 C 50 % 0,0 l/m 3,2 km/h (1 Bft) S-SW 202 15,2 C 28,8 C 0,0 km/h (0 Bft)
21.06.2012 13:23 26,1 C 54 % 0,0 l/m 2,1 km/h (1 Bft) O-SO 112 16,0 C 28,8 C 3,9 km/h (1 Bft)
21.06.2012 13:28 25,0 C 56 % 0,0 l/m 2,3 km/h (1 Bft) S 180 15,6 C 28,2 C 7,2 km/h (2 Bft)
21.06.2012 13:33 25,4 C 55 % 0,0 l/m 3,2 km/h (1 Bft) O-SO 112 15,7 C 26,9 C 2,1 km/h (1 Bft)
21.06.2012 13:38 26,0 C 54 % 0,0 l/m 2,9 km/h (1 Bft) O-SO 112 16,0 C 27,4 C 3,2 km/h (1 Bft)
21.06.2012 13:43 26,6 C 49 % 0,0 l/m 2,3 km/h (1 Bft) S 180 15,0 C 28,8 C 1,6 km/h (1 Bft)
21.06.2012 13:48 26,8 C 50 % 0,0 l/m 1,8 km/h (1 Bft) N-NO 22 15,5 C 29,6 C 0,0 km/h (0 Bft)
21.06.2012 13:53 28,1 C 49 % 0,0 l/m 2,4 km/h (1 Bft) S 180 16,4 C 30,6 C 8,5 km/h (2 Bft)
21.06.2012 13:58 28,1 C 50 % 0,0 l/m 3,9 km/h (1 Bft) S-SO 157 16,7 C 29,9 C 4,5 km/h (1 Bft)
21.06.2012 14:03 26,6 C 52 % 0,0 l/m 4,2 km/h (1 Bft) S 180 15,9 C 29,0 C 4,3 km/h (1 Bft)
21.06.2012 14:08 27,3 C 48 % 0,0 l/m 3,1 km/h (1 Bft) S-SW 202 15,3 C 28,4 C 3,2 km/h (1 Bft)
21.06.2012 14:13 28,4 C 48 % 0,0 l/m 2,7 km/h (1 Bft) N 360 16,3 C 29,7 C 3,7 km/h (1 Bft)
21.06.2012 14:18 28,7 C 48 % 0,0 l/m 2,6 km/h (1 Bft) N-NO 22 16,6 C 30,6 C 4,2 km/h (1 Bft)
21.06.2012 14:23 26,9 C 50 % 0,0 l/m 3,2 km/h (1 Bft) S 180 15,6 C 30,2 C 5,1 km/h (1 Bft)
21.06.2012 14:28 26,9 C 50 % 0,0 l/m 3,5 km/h (1 Bft) S 180 15,6 C 29,0 C 3,9 km/h (1 Bft)
21.06.2012 14:33 26,0 C 50 % 0,0 l/m 2,9 km/h (1 Bft) S-SO 157 14,8 C 28,5 C 3,5 km/h (1 Bft)
21.06.2012 14:38 25,9 C 53 % 0,0 l/m 2,4 km/h (1 Bft) SO 135 15,6 C 28,1 C 4,0 km/h (1 Bft)
21.06.2012 14:43 27,4 C 48 % 0,0 l/m 2,6 km/h (1 Bft) S 180 15,4 C 28,7 C 3,5 km/h (1 Bft)
21.06.2012 14:48 27,0 C 49 % 0,0 l/m 2,6 km/h (1 Bft) W-NW 292 15,4 C 29,0 C 3,4 km/h (1 Bft)
21.06.2012 14:53 27,6 C 48 % 0,0 l/m 3,4 km/h (1 Bft) S 180 15,6 C 29,3 C 3,9 km/h (1 Bft)
21.06.2012 14:58 26,9 C 49 % 0,0 l/m 2,9 km/h (1 Bft) O-NO 67 15,3 C 29,2 C 0,0 km/h (0 Bft)
21.06.2012 15:03 28,1 C 48 % 0,0 l/m 1,4 km/h (1 Bft) W-SW 247 16,0 C 30,6 C 3,5 km/h (1 Bft)
21.06.2012 15:08 28,9 C 45 % 0,0 l/m 1,6 km/h (1 Bft) S 180 15,8 C 31,6 C 3,1 km/h (1 Bft)
21.06.2012 15:13 28,6 C 47 % 0,0 l/m 2,7 km/h (1 Bft) N-NW 337 16,2 C 32,7 C 6,4 km/h (2 Bft)
21.06.2012 15:18 27,9 C 46 % 0,0 l/m 4,2 km/h (1 Bft) S 180 15,2 C 31,5 C 7,7 km/h (2 Bft)
21.06.2012 15:23 26,2 C 53 % 0,0 l/m 4,8 km/h (1 Bft) W-SW 247 15,8 C 29,2 C 4,0 km/h (1 Bft)
21.06.2012 15:28 27,5 C 50 % 0,0 l/m 4,2 km/h (1 Bft) W 270 16,1 C 29,1 C 8,9 km/h (2 Bft)
21.06.2012 15:33 25,8 C 56 % 0,0 l/m 4,5 km/h (1 Bft) W-NW 292 16,3 C 28,8 C 1,9 km/h (1 Bft)
21.06.2012 15:38 25,5 C 57 % 0,0 l/m 5,3 km/h (1 Bft) W 270 16,3 C 27,9 C 7,9 km/h (2 Bft)
21.06.2012 15:43 24,7 C 60 % 0,0 l/m 4,0 km/h (1 Bft) N-NW 337 16,4 C 26,6 C 5,3 km/h (1 Bft)
21.06.2012 15:48 24,6 C 61 % 0,0 l/m 2,9 km/h (1 Bft) W-NW 292 16,6 C 26,5 C 4,3 km/h (1 Bft)
21.06.2012 15:53 24,8 C 63 % 0,0 l/m 2,9 km/h (1 Bft) W-NW 292 17,3 C 26,4 C 5,3 km/h (1 Bft)
21.06.2012 15:58 24,6 C 61 % 0,0 l/m 3,1 km/h (1 Bft) W-NW 292 16,6 C 26,3 C 4,2 km/h (1 Bft)
21.06.2012 16:03 26,6 C 55 % 0,0 l/m 3,2 km/h (1 Bft) NW 315 16,8 C 28,0 C 3,5 km/h (1 Bft)
21.06.2012 16:08 25,4 C 57 % 0,0 l/m 3,5 km/h (1 Bft) W 270 16,2 C 28,3 C 4,3 km/h (1 Bft)
21.06.2012 16:13 24,7 C 61 % 0,0 l/m 3,2 km/h (1 Bft) SW 225 16,7 C 27,3 C 3,9 km/h (1 Bft)
21.06.2012 16:18 24,4 C 63 % 0,0 l/m 2,9 km/h (1 Bft) N-NW 337 16,9 C 26,7 C 2,6 km/h (1 Bft)
21.06.2012 16:23 23,5 C 65 % 0,0 l/m 2,3 km/h (1 Bft) NW 315 16,5 C 25,8 C 2,1 km/h (1 Bft)
21.06.2012 16:28 23,5 C 66 % 0,0 l/m 1,9 km/h (1 Bft) NW 315 16,8 C 25,4 C 2,3 km/h (1 Bft)
21.06.2012 16:33 23,7 C 65 % 0,0 l/m 1,6 km/h (1 Bft) W 270 16,7 C 25,3 C 0,0 km/h (0 Bft)
21.06.2012 16:38 23,8 C 65 % 0,0 l/m 1,6 km/h (1 Bft) NW 315 16,8 C 25,4 C 2,9 km/h (1 Bft)
21.06.2012 16:43 23,8 C 65 % 0,0 l/m 1,6 km/h (1 Bft) N 360 16,8 C 25,5 C 2,4 km/h (1 Bft)
21.06.2012 16:48 23,6 C 65 % 0,0 l/m 1,9 km/h (1 Bft) NW 315 16,6 C 25,4 C 0,0 km/h (0 Bft)
21.06.2012 16:53 23,5 C 67 % 0,0 l/m 2,1 km/h (1 Bft) W 270 17,0 C 25,3 C 1,6 km/h (1 Bft)
21.06.2012 16:58 23,7 C 65 % 0,0 l/m 2,1 km/h (1 Bft) W-NW 292 16,7 C 25,4 C 3,4 km/h (1 Bft)
21.06.2012 17:03 23,7 C 65 % 0,0 l/m 3,9 km/h (1 Bft) W-SW 247 16,7 C 25,5 C 5,5 km/h (1 Bft)
21.06.2012 17:08 23,4 C 66 % 0,0 l/m 3,9 km/h (1 Bft) N 360 16,7 C 25,2 C 4,3 km/h (1 Bft)
21.06.2012 17:13 23,8 C 67 % 0,0 l/m 2,1 km/h (1 Bft) W-NW 292 17,3 C 25,4 C 3,1 km/h (1 Bft)
21.06.2012 17:18 23,8 C 68 % 0,0 l/m 1,3 km/h (1 Bft) S 180 17,5 C 25,6 C 0,0 km/h (0 Bft)
21.06.2012 17:23 24,6 C 64 % 0,0 l/m 2,1 km/h (1 Bft) W-NW 292 17,3 C 26,7 C 5,1 km/h (1 Bft)
21.06.2012 17:28 24,5 C 64 % 0,0 l/m 2,9 km/h (1 Bft) W-SW 247 17,2 C 27,3 C 5,3 km/h (1 Bft)
21.06.2012 17:33 25,1 C 62 % 0,0 l/m 3,2 km/h (1 Bft) W-SW 247 17,3 C 28,6 C 3,1 km/h (1 Bft)
21.06.2012 17:38 24,8 C 63 % 0,0 l/m 3,5 km/h (1 Bft) S 180 17,3 C 28,7 C 3,4 km/h (1 Bft)
21.06.2012 17:43 24,2 C 64 % 0,0 l/m 3,1 km/h (1 Bft) NW 315 16,9 C 27,6 C 2,1 km/h (1 Bft)
21.06.2012 17:48 23,8 C 65 % 0,0 l/m 2,4 km/h (1 Bft) W-SW 247 16,8 C 27,1 C 5,5 km/h (1 Bft)
21.06.2012 17:53 23,3 C 67 % 0,0 l/m 2,7 km/h (1 Bft) N 360 16,8 C 26,0 C 2,7 km/h (1 Bft)
21.06.2012 17:58 23,2 C 67 % 0,0 l/m 2,6 km/h (1 Bft) NW 315 16,7 C 25,6 C 2,4 km/h (1 Bft)
21.06.2012 18:03 23,1 C 70 % 0,0 l/m 1,3 km/h (1 Bft) NW 315 17,3 C 25,2 C 1,9 km/h (1 Bft)
21.06.2012 18:08 23,2 C 70 % 0,0 l/m 1,3 km/h (1 Bft) NO 45 17,4 C 24,9 C 0,0 km/h (0 Bft)
21.06.2012 18:13 23,4 C 69 % 0,0 l/m 0,6 km/h (0 Bft) O 90 17,4 C 24,9 C 0,0 km/h (0 Bft)
21.06.2012 18:18 23,7 C 69 % 0,0 l/m 0,2 km/h (0 Bft) W-SW 247 17,7 C 26,0 C 0,0 km/h (0 Bft)
21.06.2012 18:23 23,9 C 67 % 0,0 l/m 0,5 km/h (0 Bft) NW 315 17,4 C 27,1 C 1,9 km/h (1 Bft)
21.06.2012 18:28 23,5 C 67 % 0,0 l/m 1,1 km/h (1 Bft) O 90 17,0 C 26,8 C 2,6 km/h (1 Bft)
21.06.2012 18:33 23,1 C 68 % 0,0 l/m 1,9 km/h (1 Bft) W-SW 247 16,9 C 25,8 C 3,2 km/h (1 Bft)
21.06.2012 18:38 22,9 C 69 % 0,0 l/m 2,1 km/h (1 Bft) NO 45 16,9 C 25,0 C 3,4 km/h (1 Bft)
21.06.2012 18:43 22,0 C 73 % 0,0 l/m 1,6 km/h (1 Bft) O 90 16,9 C 24,1 C 0,0 km/h (0 Bft)
21.06.2012 18:48 22,0 C 72 % 0,0 l/m 1,6 km/h (1 Bft) N-NO 22 16,7 C 23,8 C 3,1 km/h (1 Bft)
21.06.2012 18:53 21,8 C 63 % 0,0 l/m 1,0 km/h (0 Bft) NO 45 14,4 C 23,5 C 0,0 km/h (0 Bft)
21.06.2012 18:58 21,5 C 59 % 0,0 l/m 0,5 km/h (0 Bft) NO 45 13,1 C 23,2 C 0,0 km/h (0 Bft)
21.06.2012 19:03 21,4 C 62 % 0,0 l/m 0,2 km/h (0 Bft) O-NO 67 13,8 C 23,5 C 0,0 km/h (0 Bft)
21.06.2012 19:08 21,4 C 62 % 0,0 l/m 0,2 km/h (0 Bft) O-NO 67 13,8 C 23,5 C 0,0 km/h (0 Bft)
21.06.2012 19:10 21,4 C 62 % 0,0 l/m 0,2 km/h (0 Bft) O-NO 67 13,8 C 23,5 C 0,0 km/h (0 Bft)
21.06.2012 19:15 21,6 C 62 % 0,0 l/m 0,0 km/h (0 Bft) NO 45 14,0 C 23,9 C 0,0 km/h (0 Bft)
21.06.2012 19:20 21,4 C 63 % 0,0 l/m 0,0 km/h (0 Bft) O 90 14,1 C 24,5 C 0,0 km/h (0 Bft)
21.06.2012 19:25 21,4 C 62 % 0,0 l/m 0,0 km/h (0 Bft) NO 45 13,8 C 24,2 C 0,0 km/h (0 Bft)
21.06.2012 19:30 21,3 C 62 % 0,0 l/m 0,0 km/h (0 Bft) O-NO 67 13,7 C 23,9 C 0,0 km/h (0 Bft)
21.06.2012 19:35 21,5 C 61 % 0,0 l/m 0,0 km/h (0 Bft) N-NO 22 13,7 C 24,3 C 0,0 km/h (0 Bft)
21.06.2012 19:40 21,4 C 62 % 0,0 l/m 0,0 km/h (0 Bft) NO 45 13,8 C 24,4 C 0,0 km/h (0 Bft)
21.06.2012 19:45 21,3 C 62 % 0,0 l/m 0,0 km/h (0 Bft) N-NO 22 13,7 C 24,1 C 0,0 km/h (0 Bft)
21.06.2012 19:50 21,3 C 62 % 0,0 l/m 0,0 km/h (0 Bft) S-SO 157 13,7 C 24,5 C 0,0 km/h (0 Bft)
21.06.2012 19:55 21,3 C 61 % 0,0 l/m 0,0 km/h (0 Bft) O 90 13,5 C 24,5 C 0,0 km/h (0 Bft)
21.06.2012 20:00 20,9 C 63 % 0,0 l/m 0,2 km/h (0 Bft) N-NO 22 13,6 C 23,7 C 0,0 km/h (0 Bft)
21.06.2012 20:05 20,9 C 61 % 0,0 l/m 0,2 km/h (0 Bft) N-NO 22 13,1 C 23,1 C 0,0 km/h (0 Bft)
21.06.2012 20:10 20,3 C 62 % 0,0 l/m 0,6 km/h (0 Bft) N-NO 22 12,8 C 22,2 C 3,1 km/h (1 Bft)
21.06.2012 20:15 20,0 C 62 % 0,0 l/m 0,8 km/h (0 Bft) O-NO 67 12,5 C 21,5 C 0,0 km/h (0 Bft)
21.06.2012 20:20 19,6 C 65 % 0,0 l/m 0,5 km/h (0 Bft) N-NO 22 12,8 C 20,5 C 0,0 km/h (0 Bft)
21.06.2012 20:25 19,5 C 66 % 0,0 l/m 0,5 km/h (0 Bft) N 360 13,0 C 20,1 C 1,6 km/h (1 Bft)
21.06.2012 20:30 19,2 C 67 % 0,0 l/m 0,3 km/h (0 Bft) N-NO 22 12,9 C 19,6 C 0,0 km/h (0 Bft)
21.06.2012 20:35 19,0 C 69 % 0,0 l/m 0,2 km/h (0 Bft) N-NO 22 13,2 C 19,3 C 0,0 km/h (0 Bft)
21.06.2012 20:40 18,8 C 70 % 0,0 l/m 0,0 km/h (0 Bft) N-NO 22 13,2 C 19,1 C 0,0 km/h (0 Bft)
21.06.2012 20:45 18,8 C 71 % 0,0 l/m 0,0 km/h (0 Bft) N-NO 22 13,4 C 19,0 C 0,0 km/h (0 Bft)
21.06.2012 20:48 18,8 C 73 % 0,0 l/m 0,0 km/h (0 Bft) N 360 13,9 C 18,9 C 0,0 km/h (0 Bft)
21.06.2012 20:53 18,7 C 74 % 0,0 l/m 0,0 km/h (0 Bft) N 360 14,0 C 18,8 C 0,0 km/h (0 Bft)
21.06.2012 20:58 18,6 C 74 % 0,0 l/m 0,0 km/h (0 Bft) S 180 13,9 C 18,7 C 0,0 km/h (0 Bft)
21.06.2012 21:03 18,5 C 75 % 0,0 l/m 0,0 km/h (0 Bft) O 90 14,0 C 18,6 C 0,0 km/h (0 Bft)
21.06.2012 21:08 18,4 C 76 % 0,0 l/m 0,0 km/h (0 Bft) N 360 14,1 C 18,5 C 0,0 km/h (0 Bft)
21.06.2012 21:13 18,3 C 76 % 0,0 l/m 0,0 km/h (0 Bft) N-NO 22 14,0 C 18,3 C 0,0 km/h (0 Bft)
21.06.2012 21:18 18,3 C 76 % 0,0 l/m 0,0 km/h (0 Bft) NO 45 14,0 C 18,3 C 0,0 km/h (0 Bft)
21.06.2012 21:23 18,2 C 76 % 0,0 l/m 0,2 km/h (0 Bft) O-SO 112 13,9 C 18,2 C 0,0 km/h (0 Bft)
21.06.2012 21:28 18,3 C 76 % 0,0 l/m 0,2 km/h (0 Bft) S-SO 157 14,0 C 18,1 C 0,0 km/h (0 Bft)
21.06.2012 21:33 18,1 C 76 % 0,0 l/m 0,2 km/h (0 Bft) N-NO 22 13,8 C 18,0 C 0,0 km/h (0 Bft)
21.06.2012 21:38 18,0 C 76 % 0,0 l/m 0,3 km/h (0 Bft) N 360 13,7 C 18,1 C 2,6 km/h (1 Bft)
21.06.2012 21:43 18,0 C 77 % 0,0 l/m 0,3 km/h (0 Bft) S-SO 157 13,9 C 18,0 C 0,0 km/h (0 Bft)
21.06.2012 21:48 17,9 C 77 % 0,0 l/m 0,6 km/h (0 Bft) NO 45 13,8 C 17,9 C 2,1 km/h (1 Bft)
21.06.2012 21:53 18,0 C 77 % 0,0 l/m 1,0 km/h (0 Bft) O-SO 112 13,9 C 18,0 C 2,4 km/h (1 Bft)
21.06.2012 21:58 18,0 C 77 % 0,0 l/m 0,8 km/h (0 Bft) N-NO 22 13,9 C 18,1 C 0,0 km/h (0 Bft)
21.06.2012 22:03 17,8 C 76 % 0,0 l/m 0,5 km/h (0 Bft) S-SO 157 13,5 C 18,0 C 0,0 km/h (0 Bft)
21.06.2012 22:08 17,8 C 76 % 0,0 l/m 0,2 km/h (0 Bft) NO 45 13,5 C 17,9 C 0,0 km/h (0 Bft)
21.06.2012 22:13 17,8 C 77 % 0,0 l/m 0,3 km/h (0 Bft) W 270 13,7 C 17,9 C 0,0 km/h (0 Bft)
21.06.2012 22:18 17,8 C 77 % 0,0 l/m 0,3 km/h (0 Bft) NO 45 13,7 C 17,9 C 0,0 km/h (0 Bft)
21.06.2012 22:23 17,8 C 77 % 0,0 l/m 0,3 km/h (0 Bft) O-SO 112 13,7 C 17,7 C 4,0 km/h (1 Bft)
21.06.2012 22:28 17,8 C 77 % 0,0 l/m 0,6 km/h (0 Bft) W-NW 292 13,7 C 17,8 C 0,0 km/h (0 Bft)
21.06.2012 22:33 17,6 C 77 % 0,0 l/m 0,6 km/h (0 Bft) O-SO 112 13,5 C 17,7 C 0,0 km/h (0 Bft)
21.06.2012 22:38 17,6 C 77 % 0,0 l/m 0,5 km/h (0 Bft) O 90 13,5 C 17,6 C 2,3 km/h (1 Bft)
21.06.2012 22:43 17,7 C 76 % 0,0 l/m 1,8 km/h (1 Bft) O 90 13,4 C 17,7 C 4,5 km/h (1 Bft)
21.06.2012 22:48 17,8 C 74 % 0,0 l/m 3,4 km/h (1 Bft) SO 135 13,1 C 17,9 C 8,5 km/h (2 Bft)
21.06.2012 22:53 17,8 C 72 % 0,0 l/m 11,7 km/h (2 Bft) O-SO 112 12,7 C 15,7 C 16,9 km/h (3 Bft)
21.06.2012 22:58 17,5 C 73 % 0,0 l/m 17,7 km/h (3 Bft) O-SO 112 12,6 C 12,8 C 15,8 km/h (3 Bft)
21.06.2012 23:03 16,6 C 75 % 0,0 l/m 18,2 km/h (3 Bft) O-SO 112 12,1 C 11,7 C 21,2 km/h (4 Bft)
21.06.2012 23:08 16,2 C 76 % 0,0 l/m 15,6 km/h (3 Bft) O-SO 112 12,0 C 11,6 C 18,2 km/h (3 Bft)
21.06.2012 23:13 15,6 C 79 % 0,0 l/m 12,1 km/h (2 Bft) NO 45 12,0 C 11,8 C 5,6 km/h (1 Bft)
21.06.2012 23:18 15,5 C 80 % 0,0 l/m 10,9 km/h (2 Bft) SO 135 12,1 C 11,9 C 10,6 km/h (2 Bft)
21.06.2012 23:23 15,4 C 81 % 0,0 l/m 9,8 km/h (2 Bft) SO 135 12,2 C 12,4 C 12,7 km/h (3 Bft)
21.06.2012 23:28 15,3 C 82 % 0,0 l/m 9,0 km/h (2 Bft) SO 135 12,2 C 12,9 C 4,3 km/h (1 Bft)
21.06.2012 23:33 15,2 C 82 % 0,0 l/m 7,6 km/h (2 Bft) O-SO 112 12,1 C 13,9 C 6,1 km/h (2 Bft)
21.06.2012 23:38 15,2 C 82 % 0,0 l/m 6,3 km/h (2 Bft) SO 135 12,1 C 14,6 C 8,2 km/h (2 Bft)
21.06.2012 23:43 15,1 C 83 % 0,0 l/m 7,9 km/h (2 Bft) O-SO 112 12,2 C 13,5 C 13,7 km/h (3 Bft)
21.06.2012 23:48 15,1 C 83 % 0,0 l/m 9,3 km/h (2 Bft) SO 135 12,2 C 12,6 C 10,0 km/h (2 Bft)
21.06.2012 23:53 14,9 C 84 % 0,0 l/m 8,9 km/h (2 Bft) O-SO 112 12,2 C 12,7 C 10,8 km/h (2 Bft)
21.06.2012 23:58 14,9 C 85 % 0,0 l/m 8,2 km/h (2 Bft) SO 135 12,4 C 12,9 C 9,3 km/h (2 Bft)
_ Min-Zeit 05:40 15:08 - 21:18 - - 05:40 23:08 22:33
Minimum _ 12,6 C 45 % - 0,0 km/h (0 Bft) - - 11,8 C 11,6 C 0,0 km/h (0 Bft)
_ Max-Zeit 15:08 06:00 02:00 23:03 - - 09:05 15:13 23:03
Maximum _ 28,9 C 95 % 0,7 l/m 18,2 km/h
O-SO (3 Bft)
- - 19,7 C 32,7 C 21,2 km/h
O-SO (4 Bft)
Durchschnitt _ 20,1 C 74 % #1,4 l/m 1,7 km/h (1 Bft) S - 15,0 C 21,5 C 2,1 km/h (1 Bft)